(°C)
22°
21°
21°
21°
22°
23°
23°
(°C)
24°
24°
23°
23°
24°
25°
25°
ÉK
ÉK
ÉK
ÉK
ÉK
ÉK
ÉK
(km/h)
4-9
4-11
5-12
6-14
8-15
9-17
9-18
(mm)
0
0
0.6
2.1
4.2
5.3
4.6
(%)
33
31
35
36
36
37
34

Napfelkelte

/ -20.8°
sun-icon
UV 6
05:39
20:34
Hold (növekvő félhold) (95°)
13:54
00:53

METAR Wilmington Manor (KILG)-ért

Idő Feltételek Hőmérséklet/
Harmatpont
Szél Látási viszonyok Időjárás Felhők Légnyomás Módosítás Nyers
MVFR 22.2°C / 20.6°C 30º 7kt 8000m Rain Mist 2.29mm precipitation Scattered Clouds 4700ft
Overcast 6000ft
1013 - KILG 070651Z 03007KT 5SM RA BR SCT047 OVC060 22/21 A2994 RMK AO2 RAB0552 SLP135 P0009 T02220206
VFR 24.4°C / 20.6°C 20º 7kt >10km - Overcast 4600ft 1013 - KILG 070551Z 02007KT 10SM OVC046 24/21 A2993 RMK AO2 SLP135 T02440206 10272 20244 53003
VFR 26.1°C / 20.6°C 130º 5kt >10km - Broken Clouds 4500ft
Overcast 9000ft
1013 - KILG 070451Z 13005KT 10SM BKN045 OVC090 26/21 A2993 RMK AO2 SLP132 T02610206 403170222
VFR 26.7°C / 21.7°C 80º 5kt >10km - Scattered Clouds 4300ft
Overcast 6500ft
1013 - KILG 070351Z 08005KT 10SM SCT043 OVC065 27/22 A2992 RMK AO2 SLP132 T02670217
VFR 26.7°C / 22.8°C 110º 3kt >10km - Few Clouds 6000ft
Scattered Clouds 12000ft
1013 - KILG 070251Z 11003KT 10SM FEW060 SCT120 27/23 A2992 RMK AO2 SLP132 T02670228 51010
VFR 26.7°C / 22.2°C 60º 3kt >10km - Broken Clouds 6500ft 1013 - KILG 070151Z 06003KT 10SM BKN065 27/22 A2992 RMK AO2 SLP130 T02670222
VFR 26.7°C / 22.2°C 140º 5kt >10km - Scattered Clouds 4300ft
Broken Clouds 6500ft
1012 - KILG 070051Z 14005KT 10SM SCT043 BKN065 27/22 A2991 RMK AO2 SLP127 T02670222
VFR 27.2°C / 21.7°C 280º 4kt >10km - Scattered Clouds 4100ft
Broken Clouds 5000ft
Overcast 6500ft
1012 - KILG 062351Z 28004KT 10SM SCT041 BKN050 OVC065 27/22 A2989 RMK AO2 SLP121 60000 T02720217 10317 20272 53010
VFR 28.3°C / 22.8°C 330º 5kt >10km 0.13mm precipitation Few Clouds 4200ft
Few Clouds 5000ft
1011 - KILG 062251Z 33005KT 10SM FEW042 FEW050 28/23 A2988 RMK AO2 RAB12E28 SLP115 P0000 T02830228
VFR 30.6°C / 22.8°C 350º 6kt >10km - Few Clouds 4900ft
Scattered Clouds 6000ft
1011 - KILG 062151Z 35006KT 10SM FEW049 SCT060 31/23 A2987 RMK AO2 SLP113 T03060228
VFR 30.6°C / 22.2°C 320º 4kt >10km - Few Clouds 6000ft
Few Clouds 7000ft
Scattered Clouds 9500ft
1011 - KILG 062051Z 32004KT 10SM FEW060 FEW070 SCT095 31/22 A2986 RMK AO2 SLP111 T03060222 58007
VFR 30.6°C / 22.8°C 270º 5kt >10km - Few Clouds 3300ft
Few Clouds 12000ft
1011 - KILG 061951Z 27005KT 10SM FEW033 FEW120 31/23 A2988 RMK AO2 SLP115 T03060228
VFR 30°C / 22.8°C 10º 8kt >10km - Few Clouds 3500ft
Scattered Clouds 9000ft
1011 - KILG 061851Z 01008KT 10SM FEW035 SCT090 30/23 A2989 RMK AO2 SLP119 T03000228
VFR 30°C / 22.2°C 290º 9kt >10km - Few Clouds 12000ft 1011 - KILG 061751Z 29009KT 10SM FEW120 30/22 A2988 RMK AO2 SLP118 T03000222 10311 20256 53006
VFR 30°C / 22.2°C 310º 10kt >10km - Few Clouds 3600ft
Scattered Clouds 6500ft
1011 - KILG 061651Z 31010KT 10SM FEW036 SCT065 30/22 A2988 RMK AO2 SLP118 T03000222
VFR 30°C / 21.7°C variable 5kt >10km - Clear 1011 - KILG 061551Z VRB05KT 10SM CLR 30/22 A2987 RMK AO2 SLP112 T03000217
VFR 30°C / 22.2°C 290º 9kt >10km - Clear 1011 - KILG 061451Z 29009KT 10SM CLR 30/22 A2987 RMK AO2 SLP112 T03000222 51001
VFR 28.9°C / 22.2°C 290º 7kt >10km - Clear 1011 - KILG 061351Z 29007KT 10SM CLR 29/22 A2986 RMK AO2 SLP111 T02890222
VFR 25.6°C / 21.1°C 300º 9kt >10km - Overcast 8000ft 1011 - KILG 061251Z 30009KT 10SM OVC080 26/21 A2988 RMK AO2 SLP116 T02560211
VFR 25.6°C / 21.1°C 290º 7kt >10km - Clear 1011 - KILG 061151Z 29007KT 10SM CLR 26/21 A2986 RMK AO2 SLP111 70003 T02560211 10256 20222 50008
VFR 24.4°C / 21.7°C 300º 7kt >10km - Clear 1011 - KILG 061051Z AUTO 30007KT 10SM CLR 24/22 A2986 RMK AO2 SLP112 T02440217
MVFR 22.8°C / 22.2°C variable 0kt 8000m Mist Vertical Visibility of 0ft. 1010 - KILG 060951Z AUTO 00000KT 5SM BR CLR 23/22 A2985 RMK AO2 SLP107 T02280222
VFR 22.8°C / 22.2°C 270º 3kt 9700m Mist Vertical Visibility of 0ft. 1010 - KILG 060851Z AUTO 27003KT 6SM BR FEW003 23/22 A2984 RMK AO2 SLP102 T02280222 58003
LIFR 23.3°C / 22.8°C 280º 3kt 4800m Mist Vertical Visibility of 0ft. - KILG 060822Z AUTO 28003KT 3SM BR OVC003 23/23 A2984 RMK AO2 T02330228

MVFR

22.2°C / 20.6°C

[Több]
Szél 30º 7kt
Látási viszonyok 8000m
Időjárás Rain Mist 2.29mm precipitation
Felhők Scattered Clouds 4700ft
Overcast 6000ft
Légnyomás 1013
Módosítás -
Nyers KILG 070651Z 03007KT 5SM RA BR SCT047 OVC060 22/21 A2994 RMK AO2 RAB0552 SLP135 P0009 T02220206

VFR

24.4°C / 20.6°C

[Több]
Szél 20º 7kt
Látási viszonyok >10km
Időjárás -
Felhők Overcast 4600ft
Légnyomás 1013
Módosítás -
Nyers KILG 070551Z 02007KT 10SM OVC046 24/21 A2993 RMK AO2 SLP135 T02440206 10272 20244 53003

VFR

26.1°C / 20.6°C

[Több]
Szél 130º 5kt
Látási viszonyok >10km
Időjárás -
Felhők Broken Clouds 4500ft
Overcast 9000ft
Légnyomás 1013
Módosítás -
Nyers KILG 070451Z 13005KT 10SM BKN045 OVC090 26/21 A2993 RMK AO2 SLP132 T02610206 403170222

VFR

26.7°C / 21.7°C

[Több]
Szél 80º 5kt
Látási viszonyok >10km
Időjárás -
Felhők Scattered Clouds 4300ft
Overcast 6500ft
Légnyomás 1013
Módosítás -
Nyers KILG 070351Z 08005KT 10SM SCT043 OVC065 27/22 A2992 RMK AO2 SLP132 T02670217

VFR

26.7°C / 22.8°C

[Több]
Szél 110º 3kt
Látási viszonyok >10km
Időjárás -
Felhők Few Clouds 6000ft
Scattered Clouds 12000ft
Légnyomás 1013
Módosítás -
Nyers KILG 070251Z 11003KT 10SM FEW060 SCT120 27/23 A2992 RMK AO2 SLP132 T02670228 51010

VFR

26.7°C / 22.2°C

[Több]
Szél 60º 3kt
Látási viszonyok >10km
Időjárás -
Felhők Broken Clouds 6500ft
Légnyomás 1013
Módosítás -
Nyers KILG 070151Z 06003KT 10SM BKN065 27/22 A2992 RMK AO2 SLP130 T02670222

VFR

26.7°C / 22.2°C

[Több]
Szél 140º 5kt
Látási viszonyok >10km
Időjárás -
Felhők Scattered Clouds 4300ft
Broken Clouds 6500ft
Légnyomás 1012
Módosítás -
Nyers KILG 070051Z 14005KT 10SM SCT043 BKN065 27/22 A2991 RMK AO2 SLP127 T02670222

VFR

27.2°C / 21.7°C

[Több]
Szél 280º 4kt
Látási viszonyok >10km
Időjárás -
Felhők Scattered Clouds 4100ft
Broken Clouds 5000ft
Overcast 6500ft
Légnyomás 1012
Módosítás -
Nyers KILG 062351Z 28004KT 10SM SCT041 BKN050 OVC065 27/22 A2989 RMK AO2 SLP121 60000 T02720217 10317 20272 53010

VFR

28.3°C / 22.8°C

[Több]
Szél 330º 5kt
Látási viszonyok >10km
Időjárás 0.13mm precipitation
Felhők Few Clouds 4200ft
Few Clouds 5000ft
Légnyomás 1011
Módosítás -
Nyers KILG 062251Z 33005KT 10SM FEW042 FEW050 28/23 A2988 RMK AO2 RAB12E28 SLP115 P0000 T02830228

VFR

30.6°C / 22.8°C

[Több]
Szél 350º 6kt
Látási viszonyok >10km
Időjárás -
Felhők Few Clouds 4900ft
Scattered Clouds 6000ft
Légnyomás 1011
Módosítás -
Nyers KILG 062151Z 35006KT 10SM FEW049 SCT060 31/23 A2987 RMK AO2 SLP113 T03060228

VFR

30.6°C / 22.2°C

[Több]
Szél 320º 4kt
Látási viszonyok >10km
Időjárás -
Felhők Few Clouds 6000ft
Few Clouds 7000ft
Scattered Clouds 9500ft
Légnyomás 1011
Módosítás -
Nyers KILG 062051Z 32004KT 10SM FEW060 FEW070 SCT095 31/22 A2986 RMK AO2 SLP111 T03060222 58007

VFR

30.6°C / 22.8°C

[Több]
Szél 270º 5kt
Látási viszonyok >10km
Időjárás -
Felhők Few Clouds 3300ft
Few Clouds 12000ft
Légnyomás 1011
Módosítás -
Nyers KILG 061951Z 27005KT 10SM FEW033 FEW120 31/23 A2988 RMK AO2 SLP115 T03060228

VFR

30°C / 22.8°C

[Több]
Szél 10º 8kt
Látási viszonyok >10km
Időjárás -
Felhők Few Clouds 3500ft
Scattered Clouds 9000ft
Légnyomás 1011
Módosítás -
Nyers KILG 061851Z 01008KT 10SM FEW035 SCT090 30/23 A2989 RMK AO2 SLP119 T03000228

VFR

30°C / 22.2°C

[Több]
Szél 290º 9kt
Látási viszonyok >10km
Időjárás -
Felhők Few Clouds 12000ft
Légnyomás 1011
Módosítás -
Nyers KILG 061751Z 29009KT 10SM FEW120 30/22 A2988 RMK AO2 SLP118 T03000222 10311 20256 53006

VFR

30°C / 22.2°C

[Több]
Szél 310º 10kt
Látási viszonyok >10km
Időjárás -
Felhők Few Clouds 3600ft
Scattered Clouds 6500ft
Légnyomás 1011
Módosítás -
Nyers KILG 061651Z 31010KT 10SM FEW036 SCT065 30/22 A2988 RMK AO2 SLP118 T03000222

VFR

30°C / 21.7°C

[Több]
Szél variable 5kt
Látási viszonyok >10km
Időjárás -
Felhők Clear
Légnyomás 1011
Módosítás -
Nyers KILG 061551Z VRB05KT 10SM CLR 30/22 A2987 RMK AO2 SLP112 T03000217

VFR

30°C / 22.2°C

[Több]
Szél 290º 9kt
Látási viszonyok >10km
Időjárás -
Felhők Clear
Légnyomás 1011
Módosítás -
Nyers KILG 061451Z 29009KT 10SM CLR 30/22 A2987 RMK AO2 SLP112 T03000222 51001

VFR

28.9°C / 22.2°C

[Több]
Szél 290º 7kt
Látási viszonyok >10km
Időjárás -
Felhők Clear
Légnyomás 1011
Módosítás -
Nyers KILG 061351Z 29007KT 10SM CLR 29/22 A2986 RMK AO2 SLP111 T02890222

VFR

25.6°C / 21.1°C

[Több]
Szél 300º 9kt
Látási viszonyok >10km
Időjárás -
Felhők Overcast 8000ft
Légnyomás 1011
Módosítás -
Nyers KILG 061251Z 30009KT 10SM OVC080 26/21 A2988 RMK AO2 SLP116 T02560211

VFR

25.6°C / 21.1°C

[Több]
Szél 290º 7kt
Látási viszonyok >10km
Időjárás -
Felhők Clear
Légnyomás 1011
Módosítás -
Nyers KILG 061151Z 29007KT 10SM CLR 26/21 A2986 RMK AO2 SLP111 70003 T02560211 10256 20222 50008

VFR

24.4°C / 21.7°C

[Több]
Szél 300º 7kt
Látási viszonyok >10km
Időjárás -
Felhők Clear
Légnyomás 1011
Módosítás -
Nyers KILG 061051Z AUTO 30007KT 10SM CLR 24/22 A2986 RMK AO2 SLP112 T02440217

MVFR

22.8°C / 22.2°C

[Több]
Szél variable 0kt
Látási viszonyok 8000m
Időjárás Mist
Felhők Vertical Visibility of 0ft.
Légnyomás 1010
Módosítás -
Nyers KILG 060951Z AUTO 00000KT 5SM BR CLR 23/22 A2985 RMK AO2 SLP107 T02280222

VFR

22.8°C / 22.2°C

[Több]
Szél 270º 3kt
Látási viszonyok 9700m
Időjárás Mist
Felhők Vertical Visibility of 0ft.
Légnyomás 1010
Módosítás -
Nyers KILG 060851Z AUTO 27003KT 6SM BR FEW003 23/22 A2984 RMK AO2 SLP102 T02280222 58003

LIFR

23.3°C / 22.8°C

[Több]
Szél 280º 3kt
Látási viszonyok 4800m
Időjárás Mist
Felhők Vertical Visibility of 0ft.
Légnyomás
Módosítás -
Nyers KILG 060822Z AUTO 28003KT 3SM BR OVC003 23/23 A2984 RMK AO2 T02330228

TAF Wilmington Manor (KILG)-ért

From till


From till Wind variable 4kt. Visibility 10km or more. in the Vicinity Showers . Broken Clouds 5000ft. Overcast 8000ft.
Temporarly from till Visibility 9700m. Light Showers Rain . Scattered Clouds 3000ft. Overcast 5000ft.
From till Wind 60º 5kt. Visibility 9700m. Mist in the Vicinity Thunderstorm . Scattered Clouds 4000ft. Broken Clouds 6000ft.
From till Wind 70º 6kt. Visibility 10km or more. in the Vicinity Showers . Scattered Clouds 2000ft. Overcast 3500ft.
From till Wind 80º 6kt. Visibility 10km or more. Scattered Clouds 2000ft. Overcast 4000ft.
From till Wind variable 3kt. Visibility 9700m. Mist . Scattered Clouds 2500ft. Broken Clouds 10000ft.

Nyers: KILG 070535Z 0706/0806 VRB04KT P6SM VCSH BKN050 OVC080 TEMPO 0706/0710 6SM -SHRA SCT030 OVC050 FM071000 06005KT 6SM BR VCTS SCT040CB BKN060 FM071500 07006KT P6SM VCSH SCT020 OVC035 FM072100 08006KT P6SM SCT020 OVC040 FM080500 VRB03KT 6SM BR SCT025 BKN100

Radarkép és ultrarövid távú csapadék-előrejelzés a következő helyhez: Wilmington Manor

Szitáló eső
Enyhe
Mérsékelt
Erős
Nagyon nehéz
Jégeső

A helyzetjelző helye: Wilmington Manor. Ez az animáció bemutatja a csapadékradart az elmúlt órára vonatkozóan, valamint előrejelzést az elkövetkező 1 órára. A szitáló eső vagy enyhe hóesés láthatatlan lehet a radar számára. A csapadék intenzitása színkóddal van jelölve, a világoskéktől a narancssárgáig.

Aktuális műholdas képek ezen a helyen: Wilmington Manor, USA

A helyszín jelölő a következő helyen van elhelyezve: Wilmington Manor. [Több]

A valós idejű műholdas kép ötvözi a nappali látható fényt az éjszakai infravörös sugárzással. Éjjel a kép nem sötét, mivel az infravörös sugárzás képes érzékelni a hőmérséklet-különbségeket. Sajnos az alacsony felhőket és a ködöt nehéz megkülönböztetni a talaj hőmérsékletétől, így az éjszaka folyamán szinte láthatatlanok lehetnek. A Meteosat európai műholdképei valós időben frissülnek minden 5 percben. A GOES-16/GOES-17 (Észak- és Dél-Amerika) és Himawari (Ázsia) képei 10 percenként frissülnek.

Vissza a tetejére